King Salmon Airport King Salmon US
ICAO: PAKN
IATA:
Category: Medium
Scheduled Services:

Elevation: 73 ft
TransAlt. 18000 ft.

Airport Communications:
HARMONY:140.1
ATIS:128.8
ANCHORAGE CNTR:124.8
CTAF:121.9
RDO:122.2
GND:121.9
OPS:37.22
PTD:37.22
TWR:118.3

PAKN Zoom In..

If you have problems with the map follow the link
https://www.worldairports.se/pages/airport.php?
ICAO=PAKN

Runways:

(A) RW 12 length 8901 ft width 150 ft
ILS 110.30 / hdg 116

(B) RW 18 length 4018 ft width 100 ft
---- / hdg 180

(C) RW 30 length 8901 ft width 150 ft
---- / hdg 296

(D) RW 36 length 4018 ft width 100 ft
---- / hdg 360

Location; PAKN
Day. 17 / Time. 02.54 Zulu
* Altimeter: 29.52
* Temperature: 08° c. 46.4°f.
* Wind from: 090° Speed 14 kn with Gusts up to 22 kn.
Dewpoint: 03° c.
Visibility: 10 Statute Miles.
Clouds: Overcast 7000 ft.

PAKN 170254Z 09014G22KT 10SM OVC070 08/03 A2952 RMK AO2 SLP995 60000 T00830033 56013


Wind From 090°
Speed 14 kn.

 
 
jpsmedia.com for Web Design worldairports.se 2018   terms of use